createdAt,value
2019-02-06T00:01:40.736Z,5122.4
2019-02-06T00:11:39.948Z,5122.4
2019-02-06T00:21:39.155Z,5122.4
2019-02-06T00:31:38.364Z,5122.4
2019-02-06T00:41:37.578Z,5122.4
2019-02-06T00:51:36.781Z,5122.4
2019-02-06T01:01:35.993Z,5122.4
2019-02-06T01:11:35.199Z,5122.4
2019-02-06T01:21:34.408Z,5122.4
2019-02-06T01:31:33.616Z,5122.4
2019-02-06T01:41:32.822Z,5122.4
2019-02-06T01:51:32.032Z,5122.4
2019-02-06T02:01:31.239Z,5122.4
2019-02-06T02:11:30.445Z,5122.4
2019-02-06T02:21:29.655Z,5122.4
2019-02-06T02:31:28.861Z,5122.4
2019-02-06T02:41:28.067Z,5122.4
2019-02-06T02:51:27.275Z,5122.4
2019-02-06T03:01:26.482Z,5122.4
2019-02-06T03:11:25.687Z,5122.4
2019-02-06T03:21:24.896Z,5122.4
2019-02-06T03:31:24.114Z,5122.4
2019-02-06T03:41:23.310Z,5122.4
2019-02-06T03:51:22.520Z,5122.4
2019-02-06T04:01:21.727Z,5122.4
2019-02-06T04:11:20.938Z,5122.4
2019-02-06T04:21:20.136Z,5122.4
2019-02-06T04:31:19.343Z,5122.4
2019-02-06T04:41:18.549Z,5122.4
2019-02-06T04:51:17.760Z,5122.6
2019-02-06T05:01:16.966Z,5122.8
2019-02-06T05:11:16.173Z,5123.1
2019-02-06T05:21:15.372Z,5123.3
2019-02-06T05:31:14.581Z,5123.5
2019-02-06T05:41:13.791Z,5123.7
2019-02-06T05:51:13.006Z,5123.7
2019-02-06T06:01:12.221Z,5124
2019-02-06T06:11:11.433Z,5124.2
2019-02-06T06:21:10.644Z,5124.5
2019-02-06T06:31:09.845Z,5124.7
2019-02-06T06:41:09.060Z,5124.8
2019-02-06T06:51:08.279Z,5124.8
2019-02-06T07:01:07.486Z,5124.8
2019-02-06T07:11:06.698Z,5124.8
2019-02-06T07:21:05.904Z,5124.8
2019-02-06T07:31:05.114Z,5124.8
2019-02-06T07:41:04.323Z,5124.8
2019-02-06T07:51:03.536Z,5124.8
2019-02-06T08:01:02.757Z,5124.8
2019-02-06T08:11:02.956Z,5125
2019-02-06T08:21:01.168Z,5125.2
2019-02-06T08:31:00.367Z,5125.4
2019-02-06T08:40:59.577Z,5125.7
2019-02-06T08:50:58.785Z,5125.9
2019-02-06T09:00:57.996Z,5126.1
2019-02-06T09:10:57.211Z,5126.1
2019-02-06T09:20:56.413Z,5126.1
2019-02-06T09:30:55.619Z,5126.1
2019-02-06T09:40:54.829Z,5126.1
2019-02-06T09:50:54.032Z,5126.1
2019-02-06T10:00:53.236Z,5126.1
2019-02-06T10:10:52.503Z,5126.1
2019-02-06T10:20:51.651Z,5126.1
2019-02-06T10:30:50.861Z,5126.1
2019-02-06T10:40:50.068Z,5126.1
2019-02-06T10:50:49.284Z,5126.1
2019-02-06T11:00:48.476Z,5126.1
2019-02-06T11:10:47.687Z,5126.1
2019-02-06T11:20:46.890Z,5126.1
2019-02-06T11:30:46.096Z,5126.1
2019-02-06T11:40:45.353Z,5126.1
2019-02-06T11:50:44.510Z,5126.1
2019-02-06T12:00:43.717Z,5126.1
2019-02-06T12:10:42.921Z,5126.1
2019-02-06T12:20:42.125Z,5126.1
2019-02-06T12:30:41.332Z,5126.1
2019-02-06T12:40:40.538Z,5126.1
2019-02-06T12:50:39.742Z,5126.1
2019-02-06T13:00:38.950Z,5126.1
2019-02-06T13:10:38.156Z,5126.1
2019-02-06T13:20:37.363Z,5126.1
2019-02-06T13:30:36.615Z,5126.1
2019-02-06T13:40:45.018Z,5126.1
2019-02-06T13:50:34.986Z,5126.1
2019-02-06T14:00:34.196Z,5126.4
2019-02-06T14:10:33.405Z,5126.4
2019-02-06T14:20:32.614Z,5126.4
2019-02-06T14:30:31.825Z,5126.4
2019-02-06T14:40:31.030Z,5126.4
2019-02-06T14:50:30.237Z,5126.4
2019-02-06T15:00:29.442Z,5126.4
2019-02-06T15:10:28.647Z,5126.4
2019-02-06T15:20:27.853Z,5126.4
2019-02-06T15:30:27.060Z,5126.4
2019-02-06T15:40:26.266Z,5126.4
2019-02-06T15:50:26.939Z,5126.4
2019-02-06T16:00:24.678Z,5126.6
2019-02-06T16:10:23.890Z,5126.8
2019-02-06T16:20:23.100Z,5127.1
2019-02-06T16:30:22.311Z,5127.3
2019-02-06T16:40:21.525Z,5127.6
2019-02-06T16:50:20.739Z,5127.8
2019-02-06T17:00:19.962Z,5128
2019-02-06T17:10:19.163Z,5128
2019-02-06T17:20:18.466Z,5128.1
2019-02-06T17:30:17.591Z,5128.3
2019-02-06T17:40:16.807Z,5128.6
2019-02-06T17:50:16.021Z,5128.7
2019-02-06T18:00:15.237Z,5128.9
2019-02-06T18:10:14.456Z,5129.1
2019-02-06T18:20:13.669Z,5129.1
2019-02-06T18:30:12.893Z,5129.1
2019-02-06T18:40:12.098Z,5129.1
2019-02-06T18:50:11.317Z,5129.2
2019-02-06T19:00:10.537Z,5129.5
2019-02-06T19:10:09.757Z,5129.7
2019-02-06T19:20:21.047Z,5129.6
2019-02-06T19:30:20.262Z,5129.6
2019-02-06T19:40:19.484Z,5129.6
2019-02-06T19:50:18.699Z,5129.6
2019-02-06T20:00:17.912Z,5129.6
2019-02-06T20:10:17.125Z,5129.6
2019-02-06T20:20:16.392Z,5129.6
2019-02-06T20:30:15.681Z,5129.6
2019-02-06T20:40:14.976Z,5129.8
2019-02-06T20:50:14.269Z,5129.9
2019-02-06T21:00:13.560Z,5129.9
2019-02-06T21:10:12.851Z,5129.9
2019-02-06T21:20:12.063Z,5129.9
2019-02-06T21:30:11.276Z,5129.9
2019-02-06T21:40:10.485Z,5129.9
2019-02-06T21:50:09.696Z,5129.9
2019-02-06T22:00:08.907Z,5129.9
2019-02-06T22:10:08.119Z,5129.9
2019-02-06T22:20:07.427Z,5129.9
2019-02-06T22:30:06.537Z,5129.9
2019-02-06T22:40:05.747Z,5129.9
2019-02-06T22:50:04.956Z,5129.9
2019-02-06T23:00:04.169Z,5129.9
2019-02-06T23:10:03.377Z,5129.9
2019-02-06T23:20:02.585Z,5129.9
2019-02-06T23:30:01.792Z,5129.9
2019-02-06T23:40:01.002Z,5129.9
2019-02-06T23:50:00.228Z,5129.9
2019-02-06T23:59:59.421Z,5129.9
